createdAt,value
2022-10-14T00:03:03.152Z,12.70
2022-10-14T00:15:00.457Z,12.70
2022-10-14T00:18:03.621Z,12.70
2022-10-14T00:31:33.710Z,12.60
2022-10-14T00:51:11.232Z,12.50
2022-10-14T00:54:18.764Z,12.60
2022-10-14T01:05:01.997Z,12.50
2022-10-14T01:18:15.053Z,12.40
2022-10-14T01:25:04.667Z,12.40
2022-10-14T01:28:22.182Z,12.40
2022-10-14T01:41:28.233Z,12.40
2022-10-14T01:51:32.578Z,12.40
2022-10-14T01:57:37.906Z,12.40
2022-10-14T02:01:00.866Z,12.40
2022-10-14T02:22:05.709Z,12.30
2022-10-14T02:59:16.039Z,12.30
2022-10-14T03:09:01.621Z,12.30
2022-10-14T03:32:45.824Z,12.20
2022-10-14T03:35:17.040Z,12.20
2022-10-14T03:38:26.785Z,12.20
2022-10-14T03:40:58.773Z,12.20
2022-10-14T03:47:46.656Z,12.30
2022-10-14T03:50:45.065Z,12.20
2022-10-14T03:53:45.840Z,12.30
2022-10-14T03:57:02.942Z,12.30
2022-10-14T04:13:38.807Z,12.30
2022-10-14T04:16:18.830Z,12.30
2022-10-14T04:19:21.392Z,12.30
2022-10-14T04:21:54.062Z,12.30
2022-10-14T04:24:23.143Z,12.30
2022-10-14T04:26:53.459Z,12.30
2022-10-14T04:33:10.227Z,12.30
2022-10-14T04:35:38.565Z,12.30
2022-10-14T04:38:09.603Z,12.30
2022-10-14T04:40:37.946Z,12.30
2022-10-14T04:43:06.874Z,12.30
2022-10-14T04:45:35.854Z,12.30
2022-10-14T04:48:35.331Z,12.30
2022-10-14T04:51:10.828Z,12.30
2022-10-14T04:53:47.762Z,12.30
2022-10-14T04:56:19.336Z,12.30
2022-10-14T04:58:47.886Z,12.30
2022-10-14T05:01:19.830Z,12.30
2022-10-14T05:03:54.016Z,12.40
2022-10-14T05:06:24.954Z,12.40
2022-10-14T05:08:54.164Z,12.40
2022-10-14T05:11:22.966Z,12.50
2022-10-14T05:13:51.427Z,12.50
2022-10-14T05:16:30.452Z,12.50
2022-10-14T05:19:04.047Z,12.50
2022-10-14T05:21:39.249Z,12.50
2022-10-14T05:24:12.142Z,12.50
2022-10-14T05:26:43.386Z,12.50
2022-10-14T05:29:14.727Z,12.50
2022-10-14T05:32:09.111Z,12.50
2022-10-14T05:34:37.403Z,12.50
2022-10-14T05:37:09.949Z,12.50
2022-10-14T05:39:38.190Z,12.50
2022-10-14T05:42:09.812Z,12.50
2022-10-14T05:44:38.267Z,12.50
2022-10-14T05:47:06.813Z,12.50
2022-10-14T05:49:38.621Z,12.50
2022-10-14T05:52:09.327Z,12.50
2022-10-14T05:54:39.632Z,12.50
2022-10-14T05:57:09.911Z,12.50
2022-10-14T05:59:52.094Z,12.50
2022-10-14T06:02:26.554Z,12.50
2022-10-14T06:04:56.511Z,12.50
2022-10-14T06:07:29.123Z,12.50
2022-10-14T06:10:09.264Z,12.50
2022-10-14T06:12:38.016Z,12.50
2022-10-14T06:15:12.540Z,12.60
2022-10-14T06:17:42.894Z,12.60
2022-10-14T06:20:16.530Z,12.60
2022-10-14T06:22:46.333Z,12.60
2022-10-14T06:25:16.773Z,12.70
2022-10-14T06:27:45.459Z,12.60
2022-10-14T06:30:15.202Z,12.70
2022-10-14T06:32:45.875Z,12.70
2022-10-14T06:35:15.372Z,12.70
2022-10-14T06:37:53.258Z,12.70
2022-10-14T06:40:22.204Z,12.80
2022-10-14T06:43:00.871Z,12.80
2022-10-14T06:45:30.717Z,12.80
2022-10-14T06:47:59.303Z,12.80
2022-10-14T06:50:27.588Z,12.80
2022-10-14T06:52:57.135Z,12.70
2022-10-14T06:55:25.191Z,12.70
2022-10-14T06:57:59.125Z,12.70
2022-10-14T07:00:27.778Z,12.70
2022-10-14T07:03:10.874Z,12.70
2022-10-14T07:05:43.492Z,12.70
2022-10-14T07:08:15.421Z,12.70
2022-10-14T07:10:48.465Z,12.80
2022-10-14T07:13:16.927Z,12.80
2022-10-14T07:15:57.896Z,12.90
2022-10-14T07:18:26.732Z,12.90
2022-10-14T07:20:54.985Z,13.00
2022-10-14T07:23:24.908Z,13.00
2022-10-14T07:25:57.682Z,12.90
2022-10-14T07:28:36.701Z,12.90
2022-10-14T07:31:23.898Z,12.80
2022-10-14T07:34:10.669Z,12.80
2022-10-14T07:36:57.112Z,12.80
2022-10-14T07:40:00.174Z,12.80
2022-10-14T07:42:33.579Z,12.90
2022-10-14T07:46:03.994Z,12.90
2022-10-14T07:58:50.904Z,13.10
2022-10-14T08:05:04.151Z,13.20
2022-10-14T08:15:46.229Z,13.40
2022-10-14T08:18:36.309Z,13.40
2022-10-14T08:21:15.065Z,13.30
2022-10-14T08:24:05.130Z,13.30
2022-10-14T08:26:37.617Z,13.30
2022-10-14T08:29:14.413Z,13.30
2022-10-14T08:31:57.296Z,13.30
2022-10-14T08:34:35.936Z,13.30
2022-10-14T08:37:07.056Z,13.30
2022-10-14T08:39:50.053Z,13.30
2022-10-14T08:42:41.243Z,13.20
2022-10-14T08:45:32.284Z,13.30
2022-10-14T08:48:26.442Z,13.30
2022-10-14T08:51:12.004Z,13.30
2022-10-14T08:53:45.640Z,13.30
2022-10-14T08:56:53.963Z,13.30
2022-10-14T08:59:49.651Z,13.40
2022-10-14T09:02:33.728Z,13.40
2022-10-14T09:05:07.108Z,13.40
2022-10-14T09:07:44.297Z,13.40
2022-10-14T09:10:28.555Z,13.40
2022-10-14T09:13:14.313Z,13.40
2022-10-14T09:15:47.759Z,13.50
2022-10-14T09:18:36.523Z,13.50
2022-10-14T09:21:52.268Z,13.70
2022-10-14T09:24:50.308Z,13.70
2022-10-14T09:27:56.865Z,13.80
2022-10-14T09:30:35.550Z,13.90
2022-10-14T09:33:05.865Z,14.00
2022-10-14T09:35:40.047Z,14.00
2022-10-14T09:38:14.361Z,14.00
2022-10-14T09:40:57.265Z,14.20
2022-10-14T09:43:56.922Z,14.20
2022-10-14T09:46:29.745Z,14.40
2022-10-14T09:49:17.312Z,14.40
2022-10-14T09:51:58.761Z,14.30
2022-10-14T09:54:31.988Z,14.30
2022-10-14T09:57:05.825Z,14.30
2022-10-14T10:00:16.561Z,14.30
2022-10-14T10:03:41.773Z,14.60
2022-10-14T10:06:18.073Z,14.90
2022-10-14T10:09:46.653Z,15.00
2022-10-14T15:11:08.547Z,14.30
2022-10-14T15:14:26.537Z,14.30
2022-10-14T15:17:05.967Z,14.30
2022-10-14T15:19:41.691Z,14.20
2022-10-14T15:22:37.169Z,14.30
2022-10-14T15:25:25.444Z,14.40
2022-10-14T15:28:21.023Z,14.30
2022-10-14T15:31:34.693Z,14.30
2022-10-14T15:34:53.218Z,14.30
2022-10-14T15:41:17.323Z,14.30
2022-10-14T15:44:12.651Z,14.30
2022-10-14T15:47:09.805Z,14.30
2022-10-14T15:50:16.362Z,14.30
2022-10-14T15:52:56.115Z,14.30
2022-10-14T15:55:37.712Z,14.30
2022-10-14T16:01:30.817Z,14.30
2022-10-14T16:05:00.586Z,14.30
2022-10-14T16:07:49.466Z,14.30
2022-10-14T16:10:46.925Z,14.30
2022-10-14T16:13:49.283Z,14.30
2022-10-14T16:16:41.202Z,14.30
2022-10-14T16:19:48.881Z,14.30
2022-10-14T16:22:27.149Z,14.30
2022-10-14T16:28:42.908Z,14.40
2022-10-14T16:31:15.876Z,14.30
2022-10-14T16:37:04.889Z,14.30
2022-10-14T17:49:42.730Z,14.10
2022-10-14T18:42:05.460Z,14.10
2022-10-14T18:44:48.778Z,14.00
2022-10-14T18:47:33.821Z,14.10
2022-10-14T18:50:12.697Z,14.10
2022-10-14T18:52:59.965Z,14.10
2022-10-14T18:55:28.552Z,14.10
2022-10-14T18:58:29.203Z,14.10
2022-10-14T19:01:11.578Z,14.10
2022-10-14T19:03:59.763Z,14.10
2022-10-14T19:07:04.657Z,14.10
2022-10-14T19:09:57.901Z,14.10
2022-10-14T19:13:01.296Z,14.10
2022-10-14T19:15:53.586Z,14.10
2022-10-14T19:21:22.508Z,14.10
2022-10-14T19:23:58.408Z,14.10
2022-10-14T19:27:25.725Z,14.10
2022-10-14T19:30:03.435Z,14.10
2022-10-14T19:32:42.714Z,14.20
2022-10-14T19:39:51.713Z,14.10
2022-10-14T19:42:37.708Z,14.10
2022-10-14T19:45:22.679Z,14.10
2022-10-14T19:48:02.577Z,14.00
2022-10-14T19:50:45.262Z,14.10
2022-10-14T20:00:24.746Z,14.00
2022-10-14T20:03:02.012Z,14.00
2022-10-14T20:05:40.611Z,14.00
2022-10-14T20:11:25.077Z,14.00
2022-10-14T20:14:21.057Z,14.00
2022-10-14T20:17:04.781Z,14.00
2022-10-14T20:20:10.822Z,14.00
2022-10-14T20:22:56.617Z,14.00
2022-10-14T20:28:43.807Z,14.00
2022-10-14T20:31:25.295Z,14.00
2022-10-14T20:34:08.469Z,14.00
2022-10-14T20:37:11.680Z,14.00
2022-10-14T20:40:12.453Z,14.00
2022-10-14T20:43:00.111Z,13.90
2022-10-14T20:50:06.480Z,14.00
2022-10-14T20:56:47.165Z,13.90
2022-10-14T21:03:17.776Z,14.00
2022-10-14T21:06:33.818Z,13.90
2022-10-14T21:10:28.572Z,13.90
2022-10-14T21:14:07.995Z,14.00
2022-10-14T21:35:42.290Z,13.90
2022-10-14T21:38:31.107Z,13.80
2022-10-14T21:44:57.031Z,13.90
2022-10-14T21:51:08.119Z,13.80
2022-10-14T21:54:28.555Z,13.80
2022-10-14T22:01:02.997Z,13.80
2022-10-14T22:04:46.900Z,13.80
2022-10-14T22:18:05.284Z,13.80
2022-10-14T22:23:55.843Z,13.80
2022-10-14T22:26:49.672Z,13.80
2022-10-14T22:29:56.485Z,13.80
2022-10-14T22:32:51.685Z,13.80
2022-10-14T22:35:31.118Z,13.80
2022-10-14T22:38:16.803Z,13.80
2022-10-14T22:41:36.233Z,13.80
2022-10-14T22:44:45.018Z,13.80
2022-10-14T22:47:16.603Z,13.80
2022-10-14T22:50:23.950Z,13.80
2022-10-14T22:53:27.173Z,13.80
2022-10-14T22:56:47.728Z,13.80
2022-10-14T22:59:37.707Z,13.80
2022-10-14T23:02:31.617Z,13.80
2022-10-14T23:05:44.305Z,13.80
2022-10-14T23:08:36.162Z,13.80
2022-10-14T23:14:26.622Z,13.80
2022-10-14T23:17:09.924Z,13.80
2022-10-14T23:20:04.333Z,13.80
2022-10-14T23:23:06.958Z,13.80
2022-10-14T23:26:03.717Z,13.80
2022-10-14T23:28:49.142Z,13.80
2022-10-14T23:31:31.525Z,13.80
2022-10-14T23:34:07.842Z,13.80
2022-10-14T23:36:39.375Z,13.80
2022-10-14T23:40:00.696Z,13.80
2022-10-14T23:46:10.807Z,13.80
2022-10-14T23:56:24.830Z,13.80
2022-10-14T23:59:38.818Z,13.80
